Main page
METAR-TAF:

METAR-TAF

Airports :

Passo Rolle, Italy

latitude: 46-18N, longitude: 011-47E, elevation: 2004 m

Current weather observation

The report was made 50 minutes ago, at 17:55 UTC
Wind 4 kt from the East
Temperature -7°C
Humidity 79%
Pressure 1002 hPa
Visibility: 0100 m
light snow, freezing fog

METAR: LIVR 191755Z 08004KT 0100 -SN FZFG VV/// M07/M10 Q1002 RMK MON INVIS VIS MIN 0100

Time: 19:45 (18:45 UTC)


TAF: missing

Weather observations and forecasts of more than 4000 airports (METAR and TAF reports).

The available stations are represented by yellow and red dots on the map.

Hover mouse over dot to see the name of the station.

Then click to see weather observations and forecasts.

To change the map : click on the green buttons with a black cross to zoom in, on the green button with a dash to zoom out, or on the green arrows for adjacent maps.


METAR-TAF: